Time;durP1;ratioP1;P1;durP2;ratioP2;P2;SDS_P1;SDS_P2;PMS_P1;PMS_P2;Temp;Humidity;BMP_temperature;BMP_pressure;BME280_temperature;BME280_humidity;BME280_pressure;Samples;Min_cycle;Max_cycle;Signal;HPM_P1;HPM_P2
2022/05/05 00:00:16;;;;;;;17.30;13.50;;;14.00;67.00;;;;;;4974420;28;20062;-17
2022/05/05 00:02:42;;;;;;;15.15;11.43;;;14.00;67.20;;;;;;4974471;28;20383;-17
2022/05/05 00:05:09;;;;;;;18.63;12.48;;;14.00;68.00;;;;;;4973105;28;20490;-16
2022/05/05 00:07:34;;;;;;;17.33;12.75;;;13.90;68.90;;;;;;4974187;28;20038;-15
2022/05/05 00:14:23;;;;;;;16.90;11.15;;;13.90;70.30;;;;;;4974173;28;20081;-14
2022/05/05 00:15:32;;;;;;;;;;;13.90;69.80;;;;;;4976918;28;20450;-15
2022/05/05 00:17:58;;;;;;;11.18;8.02;;;13.90;71.80;;;;;;4978139;28;19913;-17
2022/05/05 00:20:24;;;;;;;14.43;11.43;;;13.90;68.50;;;;;;4977852;28;20057;-15
2022/05/05 00:22:50;;;;;;;11.73;8.85;;;13.90;69.10;;;;;;4976952;28;20054;-17
2022/05/05 00:25:16;;;;;;;11.77;9.13;;;13.90;69.10;;;;;;4977915;28;20027;-16
2022/05/05 00:27:42;;;;;;;11.30;9.15;;;13.90;68.60;;;;;;4977544;28;20054;-16
2022/05/05 00:30:09;;;;;;;15.25;11.27;;;13.90;69.50;;;;;;4977827;28;20074;-15
2022/05/05 00:32:35;;;;;;;14.68;10.10;;;13.90;70.90;;;;;;4977614;28;20034;-16
2022/05/05 00:35:01;;;;;;;12.07;8.85;;;13.80;70.50;;;;;;4978000;28;20117;-15
2022/05/05 00:37:27;;;;;;;11.60;8.50;;;13.80;69.60;;;;;;4978078;28;20027;-17
2022/05/05 00:39:52;;;;;;;15.00;10.32;;;13.70;69.10;;;;;;4977935;28;20057;-17
2022/05/05 00:42:18;;;;;;;13.77;9.95;;;13.70;69.00;;;;;;5059386;23;20063;-15
2022/05/05 00:44:44;;;;;;;12.38;9.32;;;13.60;69.90;;;;;;4977901;28;20019;-17
2022/05/05 00:47:16;;;;;;;16.52;11.52;;;13.60;69.70;;;;;;4977535;28;20073;-17
2022/05/05 00:49:46;;;;;;;16.13;11.27;;;13.50;71.10;;;;;;4977929;28;20045;-15
2022/05/05 00:52:13;;;;;;;14.25;11.90;;;13.50;71.80;;;;;;4977562;28;20056;-17
2022/05/05 00:54:39;;;;;;;16.42;11.52;;;13.40;72.60;;;;;;4977244;28;20030;-17
2022/05/05 00:57:06;;;;;;;13.45;9.63;;;13.40;72.60;;;;;;4977752;28;20015;-16
2022/05/05 00:59:33;;;;;;;18.10;11.82;;;13.40;72.50;;;;;;4977353;28;20556;-15
2022/05/05 01:02:01;;;;;;;13.98;10.85;;;13.30;72.40;;;;;;4977588;28;20085;-16
2022/05/05 01:04:27;;;;;;;18.95;12.65;;;13.30;72.70;;;;;;4977100;28;20050;-14
2022/05/05 01:07:00;;;;;;;16.13;11.00;;;13.20;72.30;;;;;;4977128;28;20109;-17
2022/05/05 01:09:26;;;;;;;18.67;11.38;;;13.20;71.10;;;;;;4977523;28;20574;-14
2022/05/05 01:11:52;;;;;;;14.05;10.68;;;13.20;71.40;;;;;;4977065;28;20367;-17
2022/05/05 01:14:18;;;;;;;18.65;13.13;;;13.10;71.30;;;;;;4978038;28;20030;-15
2022/05/05 01:16:44;;;;;;;18.70;14.23;;;13.10;72.20;;;;;;4977682;28;20374;-17
2022/05/05 01:19:09;;;;;;;16.83;12.23;;;13.10;72.20;;;;;;4976921;28;20058;-14
2022/05/05 01:21:35;;;;;;;18.17;13.60;;;13.10;71.40;;;;;;4977213;28;20081;-17
2022/05/05 01:24:01;;;;;;;26.33;18.20;;;13.00;72.40;;;;;;4976865;28;20109;-16
2022/05/05 01:29:12;;;;;;;18.98;14.27;;;12.90;72.40;;;;;;4976964;28;20045;-16
2022/05/05 01:31:40;;;;;;;16.92;11.93;;;12.90;72.80;;;;;;4977119;28;20481;-16
2022/05/05 01:34:06;;;;;;;19.75;14.68;;;12.90;73.30;;;;;;4977610;28;20114;-15
2022/05/05 01:36:32;;;;;;;21.85;16.08;;;12.80;74.10;;;;;;4975358;28;20035;-14
2022/05/05 01:38:58;;;;;;;20.40;14.73;;;12.80;73.70;;;;;;4976976;28;20251;-14
2022/05/05 01:41:24;;;;;;;18.20;13.45;;;12.70;74.00;;;;;;4976381;28;20466;-15
2022/05/05 01:43:50;;;;;;;19.58;14.02;;;12.60;73.50;;;;;;4976781;28;20375;-15
2022/05/05 01:46:16;;;;;;;20.92;15.18;;;12.50;73.90;;;;;;4976317;28;20106;-15
2022/05/05 01:48:42;;;;;;;27.45;17.77;;;12.40;74.30;;;;;;4976471;28;20027;-14
2022/05/05 01:51:08;;;;;;;19.00;12.98;;;12.40;74.50;;;;;;4976545;28;20394;-14
2022/05/05 01:53:37;;;;;;;23.05;15.65;;;12.40;74.50;;;;;;4976681;28;20038;-15
2022/05/05 01:56:13;;;;;;;21.50;13.57;;;12.20;73.30;;;;;;4976550;28;20023;-15
2022/05/05 01:58:44;;;;;;;17.98;11.95;;;12.20;73.80;;;;;;4976886;28;20026;-15
2022/05/05 02:01:13;;;;;;;18.33;13.20;;;12.20;73.60;;;;;;4976701;28;20139;-13
2022/05/05 02:03:39;;;;;;;21.90;14.65;;;12.10;73.80;;;;;;4976535;28;20026;-16
2022/05/05 02:06:07;;;;;;;15.95;11.75;;;12.10;75.10;;;;;;4976510;28;20090;-16
2022/05/05 02:08:33;;;;;;;15.55;10.50;;;12.00;74.10;;;;;;4975965;28;20027;-16
2022/05/05 02:10:58;;;;;;;20.63;14.00;;;12.00;74.00;;;;;;4976272;28;20037;-14
2022/05/05 02:13:24;;;;;;;21.30;15.23;;;12.00;73.90;;;;;;4976265;28;20390;-15
2022/05/05 02:15:50;;;;;;;29.73;20.33;;;12.00;74.40;;;;;;4976165;28;20054;-14
2022/05/05 02:18:18;;;;;;;27.40;18.02;;;11.90;76.00;;;;;;4975798;28;20061;-15
2022/05/05 02:20:44;;;;;;;28.77;18.63;;;12.00;77.30;;;;;;4976163;28;20042;-16
2022/05/05 02:23:10;;;;;;;22.17;16.10;;;12.00;75.90;;;;;;4975834;28;20027;-14
2022/05/05 02:25:37;;;;;;;24.17;16.48;;;12.00;77.20;;;;;;4976012;28;20174;-15
2022/05/05 02:28:03;;;;;;;18.70;14.38;;;12.00;76.20;;;;;;4975715;28;20051;-17
2022/05/05 02:30:29;;;;;;;20.15;14.23;;;12.00;76.30;;;;;;4975829;28;20026;-15
2022/05/05 02:32:56;;;;;;;25.60;17.88;;;12.10;74.80;;;;;;4976022;28;20069;-16
2022/05/05 02:35:23;;;;;;;27.42;18.98;;;12.10;75.20;;;;;;4975542;28;20041;-15
2022/05/05 02:40:33;;;;;;;30.02;19.38;;;12.00;75.40;;;;;;4975400;28;20103;-15
2022/05/05 02:43:00;;;;;;;27.52;18.95;;;12.00;75.10;;;;;;4975985;28;20030;-15
2022/05/05 02:45:26;;;;;;;30.73;20.58;;;12.00;75.60;;;;;;4975710;28;20035;-16
2022/05/05 02:47:53;;;;;;;20.33;14.75;;;12.00;75.70;;;;;;4975545;28;20030;-15
2022/05/05 02:50:20;;;;;;;25.65;15.13;;;12.00;75.90;;;;;;4975075;28;20038;-16
2022/05/05 02:52:45;;;;;;;26.83;17.58;;;11.90;75.70;;;;;;4975890;28;20023;-13
2022/05/05 02:55:11;;;;;;;22.77;15.55;;;12.00;75.40;;;;;;4976004;28;20119;-16
2022/05/05 02:57:37;;;;;;;20.10;14.27;;;11.90;75.50;;;;;;4975162;28;20023;-16
2022/05/05 03:00:07;;;;;;;27.92;18.98;;;11.90;75.10;;;;;;4975462;28;20023;-15
2022/05/05 03:02:34;;;;;;;29.83;19.63;;;11.90;75.40;;;;;;4974954;28;20054;-15
2022/05/05 03:05:01;;;;;;;30.48;20.90;;;11.90;75.40;;;;;;4975411;28;20039;-15
2022/05/05 03:07:28;;;;;;;23.35;16.58;;;11.90;75.40;;;;;;4974960;28;20027;-16
2022/05/05 03:09:54;;;;;;;22.92;15.57;;;11.90;76.90;;;;;;4975022;28;20023;-17
2022/05/05 03:12:20;;;;;;;28.42;17.45;;;11.90;76.10;;;;;;4974951;28;20050;-17
2022/05/05 03:14:47;;;;;;;24.73;17.20;;;11.90;76.20;;;;;;4974896;28;20030;-14
2022/05/05 03:17:14;;;;;;;26.92;17.80;;;11.90;75.70;;;;;;4975225;28;20050;-15
2022/05/05 03:19:41;;;;;;;23.70;16.38;;;11.80;76.10;;;;;;4974819;28;20486;-16
2022/05/05 03:22:08;;;;;;;30.88;20.17;;;11.80;75.70;;;;;;4973646;28;20033;-15
2022/05/05 03:24:34;;;;;;;21.88;14.48;;;11.80;75.90;;;;;;4973424;28;20198;-15
2022/05/05 03:27:00;;;;;;;20.90;15.15;;;11.80;75.40;;;;;;4974929;28;20117;-15
2022/05/05 03:29:26;;;;;;;22.75;15.40;;;11.80;74.90;;;;;;4974664;28;20023;-16
2022/05/05 03:31:53;;;;;;;23.92;16.42;;;11.70;75.10;;;;;;4975141;28;20567;-17
2022/05/05 03:34:20;;;;;;;21.33;13.70;;;11.70;74.80;;;;;;4974705;28;20031;-14
2022/05/05 03:36:46;;;;;;;20.23;14.25;;;11.70;74.90;;;;;;4974618;28;20037;-17
2022/05/05 03:39:11;;;;;;;19.60;13.52;;;11.80;74.70;;;;;;4974497;28;20035;-15
2022/05/05 03:41:37;;;;;;;22.90;15.32;;;11.70;74.90;;;;;;4974143;28;20053;-16
2022/05/05 03:44:05;;;;;;;20.63;13.95;;;11.70;74.80;;;;;;4974450;28;20027;-16
2022/05/05 03:46:32;;;;;;;20.83;13.85;;;11.70;74.70;;;;;;4974186;28;20502;-16
2022/05/05 03:48:59;;;;;;;23.58;15.50;;;11.70;75.10;;;;;;4975320;28;20019;-14
2022/05/05 03:51:24;;;;;;;17.33;12.90;;;11.60;75.10;;;;;;4974607;28;20085;-17
2022/05/05 03:53:52;;;;;;;27.00;19.00;;;11.60;75.00;;;;;;4974514;28;20023;-15
2022/05/05 03:56:17;;;;;;;31.10;19.17;;;11.70;75.20;;;;;;4974048;28;20443;-15
2022/05/05 03:58:43;;;;;;;28.63;17.77;;;11.70;76.10;;;;;;4974667;28;20494;-16
2022/05/05 04:01:09;;;;;;;29.67;19.90;;;11.70;76.30;;;;;;4974709;28;20038;-17
2022/05/05 04:03:41;;;;;;;32.42;20.20;;;11.70;76.70;;;;;;4974257;28;20031;-15
2022/05/05 04:06:08;;;;;;;27.30;18.98;;;11.80;78.20;;;;;;4974278;28;20023;-14
2022/05/05 04:08:36;;;;;;;32.25;20.35;;;11.80;77.20;;;;;;4974375;28;20034;-15
2022/05/05 04:11:02;;;;;;;27.42;18.75;;;11.90;77.60;;;;;;4974173;28;20496;-15
2022/05/05 04:13:27;;;;;;;29.13;18.83;;;11.90;76.70;;;;;;4974501;28;20039;-16
2022/05/05 04:15:54;;;;;;;26.17;18.38;;;12.00;76.30;;;;;;4974158;28;20034;-15
2022/05/05 04:18:20;;;;;;;33.72;21.70;;;12.10;76.50;;;;;;4974104;28;20022;-14
2022/05/05 04:20:49;;;;;;;36.80;23.30;;;12.20;76.60;;;;;;4974396;28;20035;-14
2022/05/05 04:23:15;;;;;;;31.67;21.50;;;12.30;77.70;;;;;;4974079;28;20034;-15
2022/05/05 04:25:43;;;;;;;33.00;20.42;;;12.40;78.00;;;;;;4974346;28;20035;-16
2022/05/05 04:28:10;;;;;;;33.88;20.83;;;12.50;77.40;;;;;;4974019;28;20097;-15
2022/05/05 04:30:37;;;;;;;29.38;20.40;;;12.60;77.60;;;;;;4973891;28;20031;-17
2022/05/05 04:33:03;;;;;;;30.95;20.10;;;12.60;77.40;;;;;;4974656;28;20525;-15
2022/05/05 04:35:30;;;;;;;32.35;21.48;;;12.80;78.40;;;;;;4974002;28;20042;-14
2022/05/05 04:37:58;;;;;;;39.85;25.70;;;12.80;78.10;;;;;;4974005;28;20015;-15
2022/05/05 04:40:24;;;;;;;33.25;22.35;;;12.90;79.60;;;;;;4974393;28;20371;-15
2022/05/05 04:42:49;;;;;;;33.88;22.40;;;13.00;78.60;;;;;;4973841;28;20494;-15
2022/05/05 04:45:15;;;;;;;37.03;25.02;;;13.10;78.50;;;;;;4973931;28;20173;-14
2022/05/05 04:47:42;;;;;;;38.28;24.95;;;13.20;79.20;;;;;;4974135;28;20035;-16
2022/05/05 04:50:09;;;;;;;38.33;24.33;;;13.30;79.40;;;;;;4974199;28;20023;-15
2022/05/05 04:52:35;;;;;;;28.67;19.75;;;13.40;79.10;;;;;;4973985;28;20081;-15
2022/05/05 04:55:01;;;;;;;33.10;22.58;;;13.40;77.70;;;;;;4974099;28;20494;-16
2022/05/05 04:57:27;;;;;;;34.08;23.50;;;13.50;77.70;;;;;;4973713;28;20375;-14
2022/05/05 04:59:53;;;;;;;33.50;21.10;;;13.60;78.70;;;;;;4974138;28;20121;-15
2022/05/05 05:02:19;;;;;;;25.15;16.98;;;13.60;78.30;;;;;;4977015;28;20031;-14
2022/05/05 05:04:45;;;;;;;31.33;22.33;;;13.70;77.70;;;;;;4977288;28;20057;-16
2022/05/05 05:07:11;;;;;;;35.50;20.88;;;13.80;78.30;;;;;;4977175;28;20042;-17
2022/05/05 05:09:37;;;;;;;24.83;17.30;;;13.90;77.30;;;;;;4977279;28;20027;-15
2022/05/05 05:12:03;;;;;;;28.90;18.92;;;14.00;76.10;;;;;;4977145;28;20110;-14
2022/05/05 05:14:29;;;;;;;29.15;19.70;;;14.10;76.00;;;;;;4976975;28;20114;-15
2022/05/05 05:16:55;;;;;;;27.33;18.80;;;14.20;75.40;;;;;;4977746;28;20110;-14
2022/05/05 05:19:21;;;;;;;26.92;17.23;;;14.40;75.30;;;;;;4977246;28;20031;-14
2022/05/05 05:21:47;;;;;;;26.77;17.95;;;14.40;75.20;;;;;;4977235;28;20022;-17
2022/05/05 05:24:13;;;;;;;29.67;19.42;;;14.50;75.00;;;;;;4975756;28;20023;-17
2022/05/05 05:26:39;;;;;;;36.35;23.10;;;14.60;75.00;;;;;;4976774;28;20034;-17
2022/05/05 05:29:05;;;;;;;34.55;22.20;;;14.70;75.90;;;;;;4977266;28;20026;-17
2022/05/05 05:31:31;;;;;;;40.05;25.30;;;14.80;76.80;;;;;;4976737;28;20034;-15
2022/05/05 05:33:59;;;;;;;48.05;28.55;;;14.80;80.50;;;;;;4976977;28;20027;-17
2022/05/05 05:36:25;;;;;;;50.72;30.10;;;14.90;82.00;;;;;;5045467;23;20514;-19
2022/05/05 05:38:51;;;;;;;47.67;29.52;;;14.90;82.20;;;;;;4976781;28;20367;-16
2022/05/05 05:41:17;;;;;;;40.30;26.42;;;14.90;81.80;;;;;;4976981;28;20030;-19
2022/05/05 05:43:43;;;;;;;45.17;27.02;;;14.90;80.70;;;;;;4977227;28;20042;-18
2022/05/05 05:46:09;;;;;;;40.85;26.35;;;15.10;79.80;;;;;;5028372;23;20059;-16
2022/05/05 05:48:37;;;;;;;38.83;25.08;;;15.20;79.30;;;;;;4976631;28;20106;-14
2022/05/05 05:51:03;;;;;;;42.13;26.77;;;15.30;79.10;;;;;;4976734;28;20488;-15
2022/05/05 05:53:29;;;;;;;41.53;26.90;;;15.40;79.30;;;;;;4976808;28;20027;-17
2022/05/05 05:55:55;;;;;;;36.90;25.35;;;15.40;78.80;;;;;;4976425;28;20027;-17
2022/05/05 05:58:21;;;;;;;42.25;27.52;;;15.40;78.00;;;;;;4976505;28;20023;-16
2022/05/05 06:00:46;;;;;;;42.67;26.85;;;15.40;78.40;;;;;;4976199;28;20034;-15
2022/05/05 06:05:57;;;;;;;42.78;25.60;;;15.60;78.50;;;;;;4976672;28;20084;-17
2022/05/05 06:08:23;;;;;;;45.00;28.08;;;15.70;78.50;;;;;;4976270;28;20433;-16
2022/05/05 06:10:49;;;;;;;40.30;26.77;;;15.90;78.00;;;;;;4976432;28;20034;-15
2022/05/05 06:13:15;;;;;;;38.80;25.15;;;15.90;77.40;;;;;;4974357;28;20041;-16
2022/05/05 06:15:41;;;;;;;44.22;27.52;;;16.00;77.40;;;;;;4975955;28;20033;-15
2022/05/05 06:18:07;;;;;;;40.35;25.75;;;16.20;77.30;;;;;;4976151;28;20106;-16
2022/05/05 06:20:33;;;;;;;37.38;24.75;;;16.30;77.00;;;;;;4976340;28;20031;-16
2022/05/05 06:23:00;;;;;;;38.15;25.08;;;16.40;76.70;;;;;;4976221;28;20033;-15
2022/05/05 06:25:26;;;;;;;36.22;23.52;;;16.70;76.20;;;;;;4976204;28;20031;-15
2022/05/05 06:27:53;;;;;;;34.33;22.65;;;16.90;75.70;;;;;;4976037;28;20054;-16
2022/05/05 06:30:19;;;;;;;33.92;22.75;;;17.00;75.10;;;;;;5028074;23;20063;-15
2022/05/05 06:32:45;;;;;;;29.67;21.70;;;17.20;74.40;;;;;;4976067;28;20023;-16
2022/05/05 06:35:12;;;;;;;31.55;21.30;;;17.40;74.00;;;;;;4975993;28;20050;-15
2022/05/05 06:37:38;;;;;;;27.75;19.95;;;17.70;74.30;;;;;;4975969;28;20077;-16
2022/05/05 06:40:08;;;;;;;28.45;21.02;;;18.00;73.40;;;;;;5042701;23;20418;-18
2022/05/05 06:42:34;;;;;;;28.55;20.77;;;18.40;73.00;;;;;;4975410;28;20089;-19
2022/05/05 06:45:00;;;;;;;21.25;16.42;;;18.60;72.10;;;;;;4974231;28;20027;-20
2022/05/05 06:47:26;;;;;;;29.08;20.65;;;18.80;71.20;;;;;;4975418;28;20492;-21
2022/05/05 06:49:52;;;;;;;27.65;20.25;;;19.00;70.70;;;;;;4975651;28;20030;-19
2022/05/05 06:52:18;;;;;;;26.70;18.98;;;19.30;69.30;;;;;;4973915;28;20026;-20
2022/05/05 06:54:44;;;;;;;30.00;21.73;;;19.60;68.50;;;;;;4975439;28;20025;-21
2022/05/05 06:57:10;;;;;;;28.30;20.30;;;19.90;67.50;;;;;;4975215;28;20023;-21
2022/05/05 06:59:36;;;;;;;26.67;18.35;;;19.90;67.10;;;;;;4975483;28;20383;-20
2022/05/05 07:02:02;;;;;;;27.55;19.45;;;19.90;67.40;;;;;;4975479;28;20023;-21
2022/05/05 07:07:15;;;;;;;25.23;17.90;;;20.00;66.20;;;;;;4975576;28;20042;-19
2022/05/05 07:12:27;;;;;;;26.08;19.30;;;19.70;66.60;;;;;;4975175;28;20505;-20
2022/05/05 07:14:53;;;;;;;26.45;19.35;;;19.50;66.90;;;;;;4974955;28;20104;-19
2022/05/05 07:17:19;;;;;;;22.60;16.77;;;19.50;67.00;;;;;;4973756;28;20065;-21
2022/05/05 07:19:45;;;;;;;29.25;20.33;;;19.50;67.60;;;;;;4974898;28;20035;-20
2022/05/05 07:22:12;;;;;;;24.70;18.85;;;19.50;67.50;;;;;;4974819;28;20505;-20
2022/05/05 07:24:38;;;;;;;24.48;17.88;;;19.40;67.60;;;;;;4974310;28;20026;-19
2022/05/05 07:27:05;;;;;;;24.45;17.30;;;19.30;67.90;;;;;;4974686;28;20037;-19
2022/05/05 07:29:32;;;;;;;25.05;19.02;;;19.20;68.10;;;;;;4975358;28;20027;-19
2022/05/05 07:31:58;;;;;;;25.17;18.58;;;19.20;68.30;;;;;;4975252;28;20033;-19
2022/05/05 07:34:24;;;;;;;23.77;17.73;;;19.00;68.50;;;;;;4974477;28;20023;-20
2022/05/05 07:36:51;;;;;;;22.70;17.52;;;19.10;68.80;;;;;;5027465;23;20102;-15
2022/05/05 07:39:17;;;;;;;23.75;17.08;;;19.20;67.70;;;;;;4974644;28;20023;-15
2022/05/05 07:41:44;;;;;;;24.00;18.33;;;19.30;67.60;;;;;;4974465;28;20486;-15
2022/05/05 07:44:10;;;;;;;28.58;19.85;;;19.50;66.70;;;;;;4974644;28;20101;-15
2022/05/05 07:46:36;;;;;;;24.08;17.00;;;19.50;66.10;;;;;;4974212;28;20034;-15
2022/05/05 07:49:05;;;;;;;23.55;18.70;;;19.60;66.40;;;;;;4974886;28;20019;-14
2022/05/05 07:51:32;;;;;;;23.20;17.83;;;19.70;66.30;;;;;;4974633;28;20030;-14
2022/05/05 07:56:43;;;;;;;23.13;16.70;;;19.70;65.70;;;;;;4974742;28;20118;-14
2022/05/05 07:59:10;;;;;;;20.73;16.55;;;19.50;65.70;;;;;;4974677;28;20114;-14
2022/05/05 08:01:36;;;;;;;25.02;19.08;;;19.50;65.30;;;;;;4974587;28;20058;-15
2022/05/05 08:04:04;;;;;;;25.33;17.23;;;19.50;65.20;;;;;;5029024;23;20071;-21
2022/05/05 08:06:31;;;;;;;24.70;17.83;;;19.50;65.50;;;;;;5030069;23;20117;-19
2022/05/05 08:08:58;;;;;;;24.00;17.52;;;19.50;65.70;;;;;;4974332;28;20062;-19
2022/05/05 08:11:24;;;;;;;24.20;16.60;;;19.50;65.60;;;;;;4973088;28;20467;-19
2022/05/05 08:13:50;;;;;;;21.80;16.50;;;19.60;66.10;;;;;;4974205;28;20497;-19
2022/05/05 08:16:19;;;;;;;23.60;15.45;;;19.50;63.80;;;;;;4974340;28;20026;-19
2022/05/05 08:18:45;;;;;;;22.63;17.90;;;19.60;65.50;;;;;;4974518;28;20035;-19
2022/05/05 08:21:11;;;;;;;23.67;15.90;;;19.80;64.40;;;;;;4974509;28;20031;-19
2022/05/05 08:23:38;;;;;;;26.00;17.17;;;19.90;64.40;;;;;;4974152;28;20031;-20
2022/05/05 08:28:49;;;;;;;22.73;16.83;;;20.00;63.40;;;;;;4974218;28;20086;-18
2022/05/05 08:31:16;;;;;;;22.00;17.05;;;20.00;64.10;;;;;;4974196;28;20015;-18
2022/05/05 08:33:42;;;;;;;21.33;16.48;;;19.90;63.40;;;;;;4974013;28;20031;-19
2022/05/05 08:36:09;;;;;;;21.23;15.63;;;20.00;62.90;;;;;;4974302;28;20533;-21
2022/05/05 08:38:35;;;;;;;21.48;15.00;;;20.20;62.50;;;;;;4977918;28;20478;-19
2022/05/05 08:41:03;;;;;;;17.83;13.65;;;20.30;61.70;;;;;;4978251;28;20022;-20
2022/05/05 08:43:29;;;;;;;21.63;15.80;;;20.50;62.70;;;;;;4978197;28;20023;-18
2022/05/05 08:45:58;;;;;;;22.15;15.27;;;20.60;62.00;;;;;;4977945;28;20023;-19
2022/05/05 08:48:27;;;;;;;18.40;14.20;;;20.60;61.60;;;;;;4976213;28;20027;-18
2022/05/05 08:50:58;;;;;;;21.50;15.52;;;20.70;61.40;;;;;;4977575;28;20035;-20
2022/05/05 08:53:29;;;;;;;21.92;14.30;;;20.90;61.00;;;;;;4977632;28;20438;-19
2022/05/05 08:55:55;;;;;;;19.88;15.43;;;21.00;61.40;;;;;;4977887;28;20113;-19
2022/05/05 08:58:22;;;;;;;19.90;15.15;;;21.10;61.20;;;;;;4977596;28;20130;-17
2022/05/05 09:00:52;;;;;;;17.92;13.80;;;21.30;61.20;;;;;;4977710;28;20122;-19
2022/05/05 09:03:19;;;;;;;21.77;15.13;;;21.40;60.70;;;;;;4977837;28;20022;-20
2022/05/05 09:05:46;;;;;;;20.42;15.13;;;21.50;59.70;;;;;;4977667;28;20031;-19
2022/05/05 09:08:32;;;;;;;18.83;14.80;;;21.50;60.10;;;;;;4977057;28;20502;-19
2022/05/05 09:11:04;;;;;;;18.52;13.88;;;21.50;60.30;;;;;;4977326;28;20027;-19
2022/05/05 09:13:37;;;;;;;18.33;15.40;;;21.60;59.70;;;;;;4959983;28;20031;-19
2022/05/05 09:16:05;;;;;;;19.13;13.85;;;21.70;58.10;;;;;;4977139;28;20498;-19
2022/05/05 09:18:33;;;;;;;19.25;14.85;;;21.60;58.30;;;;;;4976955;28;20033;-18
2022/05/05 09:21:02;;;;;;;20.55;15.88;;;21.60;56.70;;;;;;4977546;28;20038;-19
2022/05/05 09:23:32;;;;;;;18.60;12.73;;;21.60;58.00;;;;;;4977251;28;20478;-19
2022/05/05 09:26:00;;;;;;;19.52;15.20;;;21.60;58.70;;;;;;4977288;28;20050;-17
2022/05/05 09:28:35;;;;;;;17.73;13.20;;;21.70;58.70;;;;;;4976745;28;20114;-18
2022/05/05 09:31:09;;;;;;;17.77;14.70;;;21.70;58.60;;;;;;4977720;28;20054;-18
2022/05/05 09:33:35;;;;;;;;;;;21.80;59.20;;;;;;4977168;28;20506;-19
2022/05/05 09:36:06;;;;;;;19.30;13.50;;;21.90;58.30;;;;;;4977058;28;19941;-19
2022/05/05 09:39:01;;;;;;;16.67;12.00;;;22.00;58.00;;;;;;4976664;28;20027;-18
2022/05/05 09:41:32;;;;;;;17.83;13.02;;;21.90;56.90;;;;;;4976665;28;20429;-19
2022/05/05 09:44:13;;;;;;;16.23;12.27;;;21.80;57.80;;;;;;4976924;28;20078;-20
2022/05/05 09:46:39;;;;;;;19.77;13.63;;;21.80;59.00;;;;;;4976448;28;20042;-20
2022/05/05 09:49:12;;;;;;;12.98;10.40;;;21.90;57.30;;;;;;4976526;28;20026;-19
2022/05/05 09:51:43;;;;;;;19.83;13.32;;;22.10;57.00;;;;;;4976708;28;20035;-20
2022/05/05 09:59:47;;;;;;;16.42;11.93;;;22.20;56.00;;;;;;4976618;28;20116;-20
2022/05/05 10:05:22;;;;;;;17.42;12.43;;;22.30;56.00;;;;;;4976665;28;20037;-17
2022/05/05 10:07:51;;;;;;;16.60;13.07;;;22.40;56.20;;;;;;4976017;28;20194;-18
2022/05/05 10:10:18;;;;;;;17.35;12.63;;;22.50;56.10;;;;;;4976306;28;20023;-19
2022/05/05 10:12:45;;;;;;;14.30;10.80;;;22.40;56.00;;;;;;4974938;28;20037;-18
2022/05/05 10:15:13;;;;;;;18.63;11.93;;;22.30;56.10;;;;;;4976700;28;20034;-18
2022/05/05 10:17:40;;;;;;;18.98;13.02;;;22.40;56.70;;;;;;4976888;28;20027;-17
2022/05/05 10:20:10;;;;;;;18.45;12.02;;;22.40;56.30;;;;;;4976320;28;20111;-17
2022/05/05 10:23:18;;;;;;;13.75;11.40;;;22.40;55.80;;;;;;4975674;28;20051;-19
2022/05/05 10:25:52;;;;;;;15.88;11.57;;;22.10;56.00;;;;;;5006666;23;20521;-14
2022/05/05 10:28:44;;;;;;;14.15;11.48;;;21.90;57.40;;;;;;4975669;28;20038;-14
2022/05/05 10:31:12;;;;;;;15.55;11.68;;;21.70;57.20;;;;;;4975862;28;20109;-14
2022/05/05 10:34:01;;;;;;;15.48;11.18;;;21.60;57.10;;;;;;4975731;28;20035;-15
2022/05/05 10:36:30;;;;;;;14.45;10.55;;;21.70;55.50;;;;;;4975525;28;20031;-15
2022/05/05 10:38:57;;;;;;;15.65;11.00;;;21.50;57.10;;;;;;4975645;28;20029;-15
2022/05/05 10:41:39;;;;;;;13.38;11.15;;;21.70;57.10;;;;;;4975795;28;20042;-14
2022/05/05 10:44:20;;;;;;;16.85;10.63;;;21.70;56.40;;;;;;4975779;28;20019;-15
2022/05/05 10:47:01;;;;;;;14.95;10.85;;;21.80;57.40;;;;;;4975733;28;20134;-14
2022/05/05 10:49:41;;;;;;;13.13;9.50;;;21.70;55.60;;;;;;4975765;28;20081;-14
2022/05/05 10:52:22;;;;;;;16.40;10.70;;;21.70;55.60;;;;;;4975707;28;20114;-14
2022/05/05 10:54:53;;;;;;;15.25;10.95;;;21.90;55.10;;;;;;4975316;28;20074;-13
2022/05/05 10:57:25;;;;;;;15.73;11.07;;;21.90;55.50;;;;;;4975370;28;20034;-14
2022/05/05 11:00:11;;;;;;;15.35;11.57;;;22.00;55.20;;;;;;4974714;28;20035;-14
2022/05/05 11:02:39;;;;;;;13.75;10.60;;;21.90;55.50;;;;;;4975387;28;20058;-14
2022/05/05 11:05:20;;;;;;;14.73;11.38;;;21.70;55.80;;;;;;4975182;28;20023;-15
2022/05/05 11:07:51;;;;;;;13.85;10.93;;;21.70;57.10;;;;;;4973827;28;20046;-14
2022/05/05 11:13:37;;;;;;;15.60;11.55;;;22.10;55.40;;;;;;4975501;28;20042;-14
2022/05/05 11:22:11;;;;;;;12.82;10.38;;;22.20;56.00;;;;;;4974975;28;20026;-14
2022/05/05 11:24:41;;;;;;;17.25;12.80;;;22.20;55.10;;;;;;4974584;28;20030;-15
2022/05/05 11:27:11;;;;;;;14.50;12.07;;;22.20;55.20;;;;;;4974500;28;20057;-15
2022/05/05 11:29:38;;;;;;;14.25;9.90;;;22.20;54.50;;;;;;4975178;28;20114;-14
2022/05/05 11:32:07;;;;;;;13.55;11.70;;;22.40;55.50;;;;;;4973518;28;20438;-15
2022/05/05 11:34:37;;;;;;;12.10;9.57;;;22.40;54.60;;;;;;4974772;28;20026;-14
2022/05/05 11:37:06;;;;;;;15.13;9.88;;;22.50;53.60;;;;;;4975402;28;20113;-13
2022/05/05 11:39:34;;;;;;;13.05;10.02;;;22.60;52.80;;;;;;4974633;28;20026;-14
2022/05/05 11:42:03;;;;;;;13.95;11.20;;;22.40;53.00;;;;;;4974627;28;20487;-14
2022/05/05 11:44:30;;;;;;;16.20;10.50;;;22.40;53.20;;;;;;4974230;28;20498;-15
2022/05/05 11:47:00;;;;;;;12.55;9.25;;;22.40;53.50;;;;;;4974681;28;20061;-14
2022/05/05 11:49:32;;;;;;;11.68;9.63;;;22.30;53.50;;;;;;4974817;28;20030;-15
2022/05/05 11:52:03;;;;;;;12.77;9.98;;;22.40;53.40;;;;;;4974817;28;20022;-15
2022/05/05 11:54:32;;;;;;;12.90;10.60;;;22.20;53.50;;;;;;4974562;28;20019;-15
2022/05/05 11:57:00;;;;;;;12.07;9.00;;;21.90;53.70;;;;;;4974620;28;20058;-14
2022/05/05 12:02:18;;;;;;;12.00;9.48;;;22.00;54.10;;;;;;4974488;28;20038;-14
2022/05/05 12:04:49;;;;;;;15.57;11.82;;;21.90;52.90;;;;;;4974567;28;20394;-14
2022/05/05 12:07:20;;;;;;;16.80;11.80;;;21.90;54.00;;;;;;5041465;23;20085;-19
2022/05/05 12:09:48;;;;;;;18.40;12.38;;;21.80;54.60;;;;;;4974349;28;20050;-20
2022/05/05 12:12:18;;;;;;;15.57;11.10;;;21.80;55.40;;;;;;4976464;28;20034;-18
2022/05/05 12:14:47;;;;;;;17.08;12.38;;;21.70;55.20;;;;;;4978608;28;20022;-20
2022/05/05 12:17:26;;;;;;;16.27;12.70;;;21.70;55.40;;;;;;4978291;28;20408;-20
2022/05/05 12:20:03;;;;;;;14.80;12.00;;;21.70;56.10;;;;;;4978540;28;20106;-20
2022/05/05 12:22:37;;;;;;;15.30;11.90;;;21.70;57.80;;;;;;4977940;28;20054;-19
2022/05/05 12:25:14;;;;;;;14.82;11.07;;;21.80;56.50;;;;;;5024175;23;20061;-15
2022/05/05 12:27:45;;;;;;;14.85;10.75;;;21.90;57.00;;;;;;4958690;29;20390;-15
2022/05/05 12:30:28;;;;;;;15.77;11.40;;;21.80;58.70;;;;;;4958719;28;20033;-14
2022/05/05 12:32:54;;;;;;;16.70;11.00;;;21.90;58.70;;;;;;4958604;29;20122;-15
2022/05/05 12:35:30;;;;;;;16.55;11.60;;;21.90;57.60;;;;;;4958587;29;20110;-15
2022/05/05 12:38:00;;;;;;;16.15;10.70;;;21.80;59.10;;;;;;4958515;29;20031;-14
2022/05/05 12:40:27;;;;;;;12.55;9.65;;;21.70;59.60;;;;;;4958286;29;20027;-15
2022/05/05 12:43:07;;;;;;;14.75;11.15;;;21.70;58.90;;;;;;4958521;28;20418;-15
2022/05/05 12:45:35;;;;;;;13.73;9.55;;;21.70;59.60;;;;;;4958645;28;20115;-14
2022/05/05 12:48:10;;;;;;;12.30;9.57;;;21.60;59.10;;;;;;4958270;29;20039;-15
2022/05/05 12:50:46;;;;;;;13.15;10.23;;;21.80;59.10;;;;;;4958224;29;20030;-14
2022/05/05 13:01:49;;;;;;;13.10;8.65;;;21.50;59.60;;;;;;4958591;29;20043;-14
2022/05/05 13:04:18;;;;;;;10.10;7.70;;;21.60;58.10;;;;;;4957813;29;20122;-15
2022/05/05 13:06:50;;;;;;;12.20;9.00;;;21.60;57.50;;;;;;4957945;29;20036;-15
2022/05/05 13:09:17;;;;;;;12.25;8.23;;;21.50;57.80;;;;;;4958280;29;20027;-14
2022/05/05 13:11:46;;;;;;;12.50;7.85;;;21.40;58.40;;;;;;4957988;29;20023;-13
2022/05/05 13:14:13;;;;;;;11.15;8.32;;;21.20;58.00;;;;;;4957971;29;20075;-15
2022/05/05 13:16:39;;;;;;;10.52;7.95;;;21.20;57.90;;;;;;4958180;28;20035;-14
2022/05/05 13:19:06;;;;;;;10.27;8.50;;;21.10;58.40;;;;;;4958086;29;20030;-14
2022/05/05 13:21:36;;;;;;;11.20;8.30;;;21.10;58.70;;;;;;4957312;28;20110;-17
2022/05/05 13:24:02;;;;;;;10.75;6.93;;;20.90;58.70;;;;;;4957887;29;20090;-15